sensor_id;sensor_type;location;lat;lon;timestamp;pressure;altitude;pressure_sealevel;temperature;humidity
10484;BME280;5289;42.610;23.362;2023-01-20T00:02:09;90365.09;;;7.38;100.00
10484;BME280;5289;42.610;23.362;2023-01-20T00:04:35;90363.31;;;7.43;100.00
10484;BME280;5289;42.610;23.362;2023-01-20T00:07:02;90349.50;;;7.48;100.00
10484;BME280;5289;42.610;23.362;2023-01-20T00:09:28;90343.66;;;7.36;100.00
10484;BME280;5289;42.610;23.362;2023-01-20T00:11:55;90345.47;;;7.35;100.00
10484;BME280;5289;42.610;23.362;2023-01-20T00:14:21;90343.38;;;7.37;100.00
10484;BME280;5289;42.610;23.362;2023-01-20T00:16:49;90340.44;;;7.29;100.00
10484;BME280;5289;42.610;23.362;2023-01-20T00:19:17;90304.25;;;7.10;100.00
10484;BME280;5289;42.610;23.362;2023-01-20T00:21:44;90293.63;;;6.95;100.00
10484;BME280;5289;42.610;23.362;2023-01-20T00:24:11;90290.31;;;6.73;100.00
10484;BME280;5289;42.610;23.362;2023-01-20T00:26:37;90267.50;;;6.68;100.00
10484;BME280;5289;42.610;23.362;2023-01-20T00:29:04;90262.94;;;6.54;100.00
10484;BME280;5289;42.610;23.362;2023-01-20T00:31:30;90256.13;;;6.53;100.00
10484;BME280;5289;42.610;23.362;2023-01-20T00:33:57;90256.13;;;6.53;100.00
10484;BME280;5289;42.610;23.362;2023-01-20T00:37:05;59726.34;;;-142.13;100.00
10484;BME280;5289;42.610;23.362;2023-01-20T00:40:30;59726.34;;;-142.13;100.00
10484;BME280;5289;42.610;23.362;2023-01-20T00:43:55;59726.34;;;-142.13;100.00
10484;BME280;5289;42.610;23.362;2023-01-20T00:47:20;59726.34;;;-142.13;100.00
10484;BME280;5289;42.610;23.362;2023-01-20T00:50:45;59726.34;;;-142.13;100.00
10484;BME280;5289;42.610;23.362;2023-01-20T00:54:11;59726.34;;;-142.13;100.00
10484;BME280;5289;42.610;23.362;2023-01-20T00:57:36;59726.34;;;-142.13;100.00
10484;BME280;5289;42.610;23.362;2023-01-20T01:01:01;59726.34;;;-142.13;100.00
10484;BME280;5289;42.610;23.362;2023-01-20T01:04:26;59726.34;;;-142.13;100.00
10484;BME280;5289;42.610;23.362;2023-01-20T01:07:51;59726.34;;;-142.13;100.00
10484;BME280;5289;42.610;23.362;2023-01-20T01:11:18;59726.34;;;-142.13;100.00
10484;BME280;5289;42.610;23.362;2023-01-20T01:14:43;59726.34;;;-142.13;100.00
10484;BME280;5289;42.610;23.362;2023-01-20T01:18:08;59726.34;;;-142.13;100.00
10484;BME280;5289;42.610;23.362;2023-01-20T01:21:33;59726.34;;;-142.13;100.00
10484;BME280;5289;42.610;23.362;2023-01-20T01:24:58;59726.34;;;-142.13;100.00
10484;BME280;5289;42.610;23.362;2023-01-20T01:28:24;59726.34;;;-142.13;100.00
10484;BME280;5289;42.610;23.362;2023-01-20T01:31:49;59726.34;;;-142.13;100.00
10484;BME280;5289;42.610;23.362;2023-01-20T01:35:14;59726.34;;;-142.13;100.00
10484;BME280;5289;42.610;23.362;2023-01-20T01:38:40;59726.34;;;-142.13;100.00
10484;BME280;5289;42.610;23.362;2023-01-20T01:42:08;59726.34;;;-142.13;100.00
10484;BME280;5289;42.610;23.362;2023-01-20T01:45:35;59726.34;;;-142.13;100.00
10484;BME280;5289;42.610;23.362;2023-01-20T01:49:01;59726.34;;;-142.13;100.00
10484;BME280;5289;42.610;23.362;2023-01-20T01:52:27;59726.34;;;-142.13;100.00
10484;BME280;5289;42.610;23.362;2023-01-20T01:55:54;59726.34;;;-142.13;100.00
10484;BME280;5289;42.610;23.362;2023-01-20T01:59:20;59726.34;;;-142.13;100.00
10484;BME280;5289;42.610;23.362;2023-01-20T02:02:46;59726.34;;;-142.13;100.00
10484;BME280;5289;42.610;23.362;2023-01-20T02:06:11;59726.34;;;-142.13;100.00
10484;BME280;5289;42.610;23.362;2023-01-20T02:09:37;59726.34;;;-142.13;100.00
10484;BME280;5289;42.610;23.362;2023-01-20T02:13:02;59726.34;;;-142.13;100.00
10484;BME280;5289;42.610;23.362;2023-01-20T02:16:30;59726.34;;;-142.13;100.00
10484;BME280;5289;42.610;23.362;2023-01-20T02:20:09;59726.34;;;-142.13;100.00
10484;BME280;5289;42.610;23.362;2023-01-20T02:23:44;59726.34;;;-142.13;100.00
10484;BME280;5289;42.610;23.362;2023-01-20T02:27:12;59726.34;;;-142.13;100.00
10484;BME280;5289;42.610;23.362;2023-01-20T02:30:41;59726.34;;;-142.13;100.00
10484;BME280;5289;42.610;23.362;2023-01-20T02:34:15;59726.34;;;-142.13;100.00
10484;BME280;5289;42.610;23.362;2023-01-20T02:37:46;59726.34;;;-142.13;100.00
10484;BME280;5289;42.610;23.362;2023-01-20T02:41:15;59726.34;;;-142.13;100.00
10484;BME280;5289;42.610;23.362;2023-01-20T02:44:41;59726.34;;;-142.13;100.00
10484;BME280;5289;42.610;23.362;2023-01-20T02:48:11;59726.34;;;-142.13;100.00
10484;BME280;5289;42.610;23.362;2023-01-20T02:51:43;59726.34;;;-142.13;100.00
10484;BME280;5289;42.610;23.362;2023-01-20T02:55:12;59726.34;;;-142.13;100.00
10484;BME280;5289;42.610;23.362;2023-01-20T02:58:40;59726.34;;;-142.13;100.00
10484;BME280;5289;42.610;23.362;2023-01-20T03:02:07;59726.34;;;-142.13;100.00
10484;BME280;5289;42.610;23.362;2023-01-20T03:05:34;59726.34;;;-142.13;100.00
10484;BME280;5289;42.610;23.362;2023-01-20T03:09:03;59726.34;;;-142.13;100.00
10484;BME280;5289;42.610;23.362;2023-01-20T03:12:32;59726.34;;;-142.13;100.00
10484;BME280;5289;42.610;23.362;2023-01-20T03:15:59;59726.34;;;-142.13;100.00
10484;BME280;5289;42.610;23.362;2023-01-20T03:19:26;59726.34;;;-142.13;100.00
10484;BME280;5289;42.610;23.362;2023-01-20T03:22:51;59726.34;;;-142.13;100.00
10484;BME280;5289;42.610;23.362;2023-01-20T03:26:18;59726.34;;;-142.13;100.00
10484;BME280;5289;42.610;23.362;2023-01-20T03:29:43;59726.34;;;-142.13;100.00
10484;BME280;5289;42.610;23.362;2023-01-20T03:33:08;59726.34;;;-142.13;100.00
10484;BME280;5289;42.610;23.362;2023-01-20T03:36:34;59726.34;;;-142.13;100.00
10484;BME280;5289;42.610;23.362;2023-01-20T03:39:59;59726.34;;;-142.13;100.00
10484;BME280;5289;42.610;23.362;2023-01-20T03:43:27;59726.34;;;-142.13;100.00
10484;BME280;5289;42.610;23.362;2023-01-20T03:46:57;59726.34;;;-142.13;100.00
10484;BME280;5289;42.610;23.362;2023-01-20T03:50:28;59726.34;;;-142.13;100.00
10484;BME280;5289;42.610;23.362;2023-01-20T03:53:57;59726.34;;;-142.13;100.00
10484;BME280;5289;42.610;23.362;2023-01-20T03:57:24;59726.34;;;-142.13;100.00
10484;BME280;5289;42.610;23.362;2023-01-20T04:00:51;59726.34;;;-142.13;100.00
10484;BME280;5289;42.610;23.362;2023-01-20T04:04:17;59726.34;;;-142.13;100.00
10484;BME280;5289;42.610;23.362;2023-01-20T04:07:43;59726.34;;;-142.13;100.00
10484;BME280;5289;42.610;23.362;2023-01-20T04:11:09;59726.34;;;-142.13;100.00
10484;BME280;5289;42.610;23.362;2023-01-20T04:14:34;59726.34;;;-142.13;100.00
10484;BME280;5289;42.610;23.362;2023-01-20T04:18:10;59726.34;;;-142.13;100.00
10484;BME280;5289;42.610;23.362;2023-01-20T04:21:35;59726.34;;;-142.13;100.00
10484;BME280;5289;42.610;23.362;2023-01-20T04:25:05;59726.34;;;-142.13;100.00
10484;BME280;5289;42.610;23.362;2023-01-20T04:28:35;59726.34;;;-142.13;100.00
10484;BME280;5289;42.610;23.362;2023-01-20T04:32:00;59726.34;;;-142.13;100.00
10484;BME280;5289;42.610;23.362;2023-01-20T04:35:27;59726.34;;;-142.13;100.00
10484;BME280;5289;42.610;23.362;2023-01-20T04:38:52;59726.34;;;-142.13;100.00
10484;BME280;5289;42.610;23.362;2023-01-20T04:42:17;59726.34;;;-142.13;100.00
10484;BME280;5289;42.610;23.362;2023-01-20T04:45:42;59726.34;;;-142.13;100.00
10484;BME280;5289;42.610;23.362;2023-01-20T04:49:07;59726.34;;;-142.13;100.00
10484;BME280;5289;42.610;23.362;2023-01-20T04:52:34;59726.34;;;-142.13;100.00
10484;BME280;5289;42.610;23.362;2023-01-20T04:55:59;59726.34;;;-142.13;100.00
10484;BME280;5289;42.610;23.362;2023-01-20T04:59:24;59726.34;;;-142.13;100.00
10484;BME280;5289;42.610;23.362;2023-01-20T05:02:49;59726.34;;;-142.13;100.00
10484;BME280;5289;42.610;23.362;2023-01-20T05:06:15;59726.34;;;-142.13;100.00
10484;BME280;5289;42.610;23.362;2023-01-20T05:09:42;59726.34;;;-142.13;100.00
10484;BME280;5289;42.610;23.362;2023-01-20T05:13:07;59726.34;;;-142.13;100.00
10484;BME280;5289;42.610;23.362;2023-01-20T05:16:32;59726.34;;;-142.13;100.00
10484;BME280;5289;42.610;23.362;2023-01-20T05:19:57;59726.34;;;-142.13;100.00
10484;BME280;5289;42.610;23.362;2023-01-20T05:23:22;59726.34;;;-142.13;100.00
10484;BME280;5289;42.610;23.362;2023-01-20T05:26:48;59726.34;;;-142.13;100.00
10484;BME280;5289;42.610;23.362;2023-01-20T05:30:13;59726.34;;;-142.13;100.00
10484;BME280;5289;42.610;23.362;2023-01-20T05:33:38;59726.34;;;-142.13;100.00
10484;BME280;5289;42.610;23.362;2023-01-20T05:37:03;59726.34;;;-142.13;100.00
10484;BME280;5289;42.610;23.362;2023-01-20T05:40:28;59726.34;;;-142.13;100.00
10484;BME280;5289;42.610;23.362;2023-01-20T05:43:55;59726.34;;;-142.13;100.00
10484;BME280;5289;42.610;23.362;2023-01-20T05:47:20;59726.34;;;-142.13;100.00
10484;BME280;5289;42.610;23.362;2023-01-20T05:50:45;59726.34;;;-142.13;100.00
10484;BME280;5289;42.610;23.362;2023-01-20T05:54:10;59726.34;;;-142.13;100.00
10484;BME280;5289;42.610;23.362;2023-01-20T05:57:35;59726.34;;;-142.13;100.00
10484;BME280;5289;42.610;23.362;2023-01-20T06:01:05;59726.34;;;-142.13;100.00
10484;BME280;5289;42.610;23.362;2023-01-20T06:04:30;59726.34;;;-142.13;100.00
10484;BME280;5289;42.610;23.362;2023-01-20T06:07:55;59726.34;;;-142.13;100.00
10484;BME280;5289;42.610;23.362;2023-01-20T06:11:20;59726.34;;;-142.13;100.00
10484;BME280;5289;42.610;23.362;2023-01-20T06:14:45;59726.34;;;-142.13;100.00
10484;BME280;5289;42.610;23.362;2023-01-20T06:18:12;59726.34;;;-142.13;100.00
10484;BME280;5289;42.610;23.362;2023-01-20T06:21:37;59726.34;;;-142.13;100.00
10484;BME280;5289;42.610;23.362;2023-01-20T06:25:02;59726.34;;;-142.13;100.00
10484;BME280;5289;42.610;23.362;2023-01-20T06:28:27;59726.34;;;-142.13;100.00
10484;BME280;5289;42.610;23.362;2023-01-20T06:31:52;59726.34;;;-142.13;100.00
10484;BME280;5289;42.610;23.362;2023-01-20T06:35:18;59726.34;;;-142.13;100.00
10484;BME280;5289;42.610;23.362;2023-01-20T06:38:43;59726.34;;;-142.13;100.00
10484;BME280;5289;42.610;23.362;2023-01-20T06:42:13;59726.34;;;-142.13;100.00
10484;BME280;5289;42.610;23.362;2023-01-20T06:45:38;59726.34;;;-142.13;100.00
10484;BME280;5289;42.610;23.362;2023-01-20T06:49:03;59726.34;;;-142.13;100.00
10484;BME280;5289;42.610;23.362;2023-01-20T06:52:29;59726.34;;;-142.13;100.00
10484;BME280;5289;42.610;23.362;2023-01-20T06:55:54;59726.34;;;-142.13;100.00
10484;BME280;5289;42.610;23.362;2023-01-20T06:59:19;59726.34;;;-142.13;100.00
10484;BME280;5289;42.610;23.362;2023-01-20T07:02:45;59726.34;;;-142.13;100.00
10484;BME280;5289;42.610;23.362;2023-01-20T07:06:15;59726.34;;;-142.13;100.00
10484;BME280;5289;42.610;23.362;2023-01-20T07:09:42;59726.34;;;-142.13;100.00
10484;BME280;5289;42.610;23.362;2023-01-20T07:13:07;59726.34;;;-142.13;100.00
10484;BME280;5289;42.610;23.362;2023-01-20T07:16:32;59726.34;;;-142.13;100.00
10484;BME280;5289;42.610;23.362;2023-01-20T07:19:57;59726.34;;;-142.13;100.00
10484;BME280;5289;42.610;23.362;2023-01-20T07:23:22;59726.34;;;-142.13;100.00
10484;BME280;5289;42.610;23.362;2023-01-20T07:26:48;59726.34;;;-142.13;100.00
10484;BME280;5289;42.610;23.362;2023-01-20T07:30:16;59726.34;;;-142.13;100.00
10484;BME280;5289;42.610;23.362;2023-01-20T07:33:41;59726.34;;;-142.13;100.00
10484;BME280;5289;42.610;23.362;2023-01-20T07:37:06;59726.34;;;-142.13;100.00
10484;BME280;5289;42.610;23.362;2023-01-20T07:40:31;59726.34;;;-142.13;100.00
10484;BME280;5289;42.610;23.362;2023-01-20T07:43:57;59726.34;;;-142.13;100.00
10484;BME280;5289;42.610;23.362;2023-01-20T07:47:22;59726.34;;;-142.13;100.00
10484;BME280;5289;42.610;23.362;2023-01-20T07:50:47;59726.34;;;-142.13;100.00
10484;BME280;5289;42.610;23.362;2023-01-20T07:54:12;59726.34;;;-142.13;100.00
10484;BME280;5289;42.610;23.362;2023-01-20T07:57:37;59726.34;;;-142.13;100.00
10484;BME280;5289;42.610;23.362;2023-01-20T08:01:07;59726.34;;;-142.13;100.00
10484;BME280;5289;42.610;23.362;2023-01-20T08:04:32;59726.34;;;-142.13;100.00
10484;BME280;5289;42.610;23.362;2023-01-20T08:07:57;59726.34;;;-142.13;100.00
10484;BME280;5289;42.610;23.362;2023-01-20T08:11:22;59726.34;;;-142.13;100.00
10484;BME280;5289;42.610;23.362;2023-01-20T08:14:47;59726.34;;;-142.13;100.00
10484;BME280;5289;42.610;23.362;2023-01-20T08:18:14;59726.34;;;-142.13;100.00
10484;BME280;5289;42.610;23.362;2023-01-20T08:21:39;59726.34;;;-142.13;100.00
10484;BME280;5289;42.610;23.362;2023-01-20T08:25:04;59726.34;;;-142.13;100.00
10484;BME280;5289;42.610;23.362;2023-01-20T08:28:30;59726.34;;;-142.13;100.00
10484;BME280;5289;42.610;23.362;2023-01-20T08:31:57;59726.34;;;-142.13;100.00
10484;BME280;5289;42.610;23.362;2023-01-20T08:35:24;59726.34;;;-142.13;100.00
10484;BME280;5289;42.610;23.362;2023-01-20T08:38:49;59726.34;;;-142.13;100.00
10484;BME280;5289;42.610;23.362;2023-01-20T08:42:14;59726.34;;;-142.13;100.00
10484;BME280;5289;42.610;23.362;2023-01-20T08:45:39;59726.34;;;-142.13;100.00
10484;BME280;5289;42.610;23.362;2023-01-20T08:49:06;59726.34;;;-142.13;100.00
10484;BME280;5289;42.610;23.362;2023-01-20T08:52:32;59726.34;;;-142.13;100.00
10484;BME280;5289;42.610;23.362;2023-01-20T08:55:58;59726.34;;;-142.13;100.00
10484;BME280;5289;42.610;23.362;2023-01-20T08:59:24;59726.34;;;-142.13;100.00
10484;BME280;5289;42.610;23.362;2023-01-20T09:02:49;59726.34;;;-142.13;100.00
10484;BME280;5289;42.610;23.362;2023-01-20T09:06:14;59726.34;;;-142.13;100.00
10484;BME280;5289;42.610;23.362;2023-01-20T09:09:40;59726.34;;;-142.13;100.00
10484;BME280;5289;42.610;23.362;2023-01-20T09:13:05;59726.34;;;-142.13;100.00
10484;BME280;5289;42.610;23.362;2023-01-20T09:16:30;59726.34;;;-142.13;100.00
10484;BME280;5289;42.610;23.362;2023-01-20T09:19:55;59726.34;;;-142.13;100.00
10484;BME280;5289;42.610;23.362;2023-01-20T09:23:20;59726.34;;;-142.13;100.00
10484;BME280;5289;42.610;23.362;2023-01-20T09:26:47;59726.34;;;-142.13;100.00
10484;BME280;5289;42.610;23.362;2023-01-20T09:30:12;59726.34;;;-142.13;100.00
10484;BME280;5289;42.610;23.362;2023-01-20T09:33:38;59726.34;;;-142.13;100.00
10484;BME280;5289;42.610;23.362;2023-01-20T09:37:04;59726.34;;;-142.13;100.00
10484;BME280;5289;42.610;23.362;2023-01-20T09:40:45;59726.34;;;-142.13;100.00
10484;BME280;5289;42.610;23.362;2023-01-20T09:44:35;59726.34;;;-142.13;100.00
10484;BME280;5289;42.610;23.362;2023-01-20T09:48:05;59726.34;;;-142.13;100.00
10484;BME280;5289;42.610;23.362;2023-01-20T09:51:40;59726.34;;;-142.13;100.00
10484;BME280;5289;42.610;23.362;2023-01-20T09:55:27;59726.34;;;-142.13;100.00
10484;BME280;5289;42.610;23.362;2023-01-20T09:58:54;59726.34;;;-142.13;100.00
10484;BME280;5289;42.610;23.362;2023-01-20T10:02:24;59726.34;;;-142.13;100.00
10484;BME280;5289;42.610;23.362;2023-01-20T10:05:51;59726.34;;;-142.13;100.00
10484;BME280;5289;42.610;23.362;2023-01-20T10:09:20;59726.34;;;-142.13;100.00
10484;BME280;5289;42.610;23.362;2023-01-20T10:12:49;59726.34;;;-142.13;100.00
10484;BME280;5289;42.610;23.362;2023-01-20T10:16:19;59726.34;;;-142.13;100.00
10484;BME280;5289;42.610;23.362;2023-01-20T10:19:48;59726.34;;;-142.13;100.00
10484;BME280;5289;42.610;23.362;2023-01-20T10:23:15;59726.34;;;-142.13;100.00
10484;BME280;5289;42.610;23.362;2023-01-20T10:26:45;59726.34;;;-142.13;100.00
10484;BME280;5289;42.610;23.362;2023-01-20T10:30:13;59726.34;;;-142.13;100.00
10484;BME280;5289;42.610;23.362;2023-01-20T10:33:39;59726.34;;;-142.13;100.00
10484;BME280;5289;42.610;23.362;2023-01-20T10:37:08;59726.34;;;-142.13;100.00
10484;BME280;5289;42.610;23.362;2023-01-20T10:40:35;59726.34;;;-142.13;100.00
10484;BME280;5289;42.610;23.362;2023-01-20T10:44:02;59726.34;;;-142.13;100.00
10484;BME280;5289;42.610;23.362;2023-01-20T10:47:32;59726.34;;;-142.13;100.00
10484;BME280;5289;42.610;23.362;2023-01-20T10:51:02;59726.34;;;-142.13;100.00
10484;BME280;5289;42.610;23.362;2023-01-20T10:54:31;59726.34;;;-142.13;100.00
10484;BME280;5289;42.610;23.362;2023-01-20T10:58:01;59726.34;;;-142.13;100.00
10484;BME280;5289;42.610;23.362;2023-01-20T11:01:28;59726.34;;;-142.13;100.00
10484;BME280;5289;42.610;23.362;2023-01-20T11:04:54;59726.34;;;-142.13;100.00
10484;BME280;5289;42.610;23.362;2023-01-20T11:08:22;59726.34;;;-142.13;100.00
10484;BME280;5289;42.610;23.362;2023-01-20T11:11:49;59726.34;;;-142.13;100.00
10484;BME280;5289;42.610;23.362;2023-01-20T11:15:15;59726.34;;;-142.13;100.00
10484;BME280;5289;42.610;23.362;2023-01-20T11:18:40;59726.34;;;-142.13;100.00
10484;BME280;5289;42.610;23.362;2023-01-20T11:22:09;59726.34;;;-142.13;100.00
10484;BME280;5289;42.610;23.362;2023-01-20T11:25:34;59726.34;;;-142.13;100.00
10484;BME280;5289;42.610;23.362;2023-01-20T11:29:01;59726.34;;;-142.13;100.00
10484;BME280;5289;42.610;23.362;2023-01-20T11:32:31;59726.34;;;-142.13;100.00
10484;BME280;5289;42.610;23.362;2023-01-20T11:36:00;59726.34;;;-142.13;100.00
10484;BME280;5289;42.610;23.362;2023-01-20T11:39:28;59726.34;;;-142.13;100.00
10484;BME280;5289;42.610;23.362;2023-01-20T11:42:53;59726.34;;;-142.13;100.00
10484;BME280;5289;42.610;23.362;2023-01-20T11:46:24;59726.34;;;-142.13;100.00
10484;BME280;5289;42.610;23.362;2023-01-20T11:53:33;59726.34;;;-142.13;100.00
10484;BME280;5289;42.610;23.362;2023-01-20T11:56:59;59726.34;;;-142.13;100.00
10484;BME280;5289;42.610;23.362;2023-01-20T12:00:28;59726.34;;;-142.13;100.00
10484;BME280;5289;42.610;23.362;2023-01-20T12:07:36;59726.34;;;-142.13;100.00
10484;BME280;5289;42.610;23.362;2023-01-20T12:11:03;59726.34;;;-142.13;100.00
10484;BME280;5289;42.610;23.362;2023-01-20T12:14:30;59726.34;;;-142.13;100.00
10484;BME280;5289;42.610;23.362;2023-01-20T12:17:57;59726.34;;;-142.13;100.00
10484;BME280;5289;42.610;23.362;2023-01-20T12:21:25;59726.34;;;-142.13;100.00
10484;BME280;5289;42.610;23.362;2023-01-20T12:24:54;59726.34;;;-142.13;100.00
10484;BME280;5289;42.610;23.362;2023-01-20T12:28:36;59726.34;;;-142.13;100.00
10484;BME280;5289;42.610;23.362;2023-01-20T12:32:04;59726.34;;;-142.13;100.00
10484;BME280;5289;42.610;23.362;2023-01-20T12:35:30;59726.34;;;-142.13;100.00
10484;BME280;5289;42.610;23.362;2023-01-20T12:46:30;59726.34;;;-142.13;100.00
10484;BME280;5289;42.610;23.362;2023-01-20T12:53:46;59726.34;;;-142.13;100.00
10484;BME280;5289;42.610;23.362;2023-01-20T12:57:18;59726.34;;;-142.13;100.00
10484;BME280;5289;42.610;23.362;2023-01-20T13:00:48;59726.34;;;-142.13;100.00
10484;BME280;5289;42.610;23.362;2023-01-20T13:08:05;59726.34;;;-142.13;100.00
10484;BME280;5289;42.610;23.362;2023-01-20T13:11:39;59726.34;;;-142.13;100.00
10484;BME280;5289;42.610;23.362;2023-01-20T13:15:16;59726.34;;;-142.13;100.00
10484;BME280;5289;42.610;23.362;2023-01-20T13:18:46;59726.34;;;-142.13;100.00
10484;BME280;5289;42.610;23.362;2023-01-20T13:22:17;59726.34;;;-142.13;100.00
10484;BME280;5289;42.610;23.362;2023-01-20T13:25:44;59726.34;;;-142.13;100.00
10484;BME280;5289;42.610;23.362;2023-01-20T13:29:19;59726.34;;;-142.13;100.00
10484;BME280;5289;42.610;23.362;2023-01-20T13:32:45;59726.34;;;-142.13;100.00
10484;BME280;5289;42.610;23.362;2023-01-20T13:36:15;59726.34;;;-142.13;100.00
10484;BME280;5289;42.610;23.362;2023-01-20T13:39:41;59726.34;;;-142.13;100.00
10484;BME280;5289;42.610;23.362;2023-01-20T13:43:15;59726.34;;;-142.13;100.00
10484;BME280;5289;42.610;23.362;2023-01-20T13:46:55;59726.34;;;-142.13;100.00
10484;BME280;5289;42.610;23.362;2023-01-20T13:50:21;59726.34;;;-142.13;100.00
10484;BME280;5289;42.610;23.362;2023-01-20T13:53:46;59726.34;;;-142.13;100.00
10484;BME280;5289;42.610;23.362;2023-01-20T14:01:08;59726.34;;;-142.13;100.00
10484;BME280;5289;42.610;23.362;2023-01-20T14:04:36;59726.34;;;-142.13;100.00
10484;BME280;5289;42.610;23.362;2023-01-20T14:08:12;59726.34;;;-142.13;100.00
10484;BME280;5289;42.610;23.362;2023-01-20T14:11:38;59726.34;;;-142.13;100.00
10484;BME280;5289;42.610;23.362;2023-01-20T14:15:25;59726.34;;;-142.13;100.00
10484;BME280;5289;42.610;23.362;2023-01-20T14:18:52;59726.34;;;-142.13;100.00
10484;BME280;5289;42.610;23.362;2023-01-20T14:22:19;59726.34;;;-142.13;100.00
10484;BME280;5289;42.610;23.362;2023-01-20T14:25:52;59726.34;;;-142.13;100.00
10484;BME280;5289;42.610;23.362;2023-01-20T14:29:19;59726.34;;;-142.13;100.00
10484;BME280;5289;42.610;23.362;2023-01-20T14:32:45;59726.34;;;-142.13;100.00
10484;BME280;5289;42.610;23.362;2023-01-20T14:36:13;59726.34;;;-142.13;100.00
10484;BME280;5289;42.610;23.362;2023-01-20T14:39:38;59726.34;;;-142.13;100.00
10484;BME280;5289;42.610;23.362;2023-01-20T14:43:12;59726.34;;;-142.13;100.00
10484;BME280;5289;42.610;23.362;2023-01-20T14:46:38;59726.34;;;-142.13;100.00
10484;BME280;5289;42.610;23.362;2023-01-20T14:50:03;59726.34;;;-142.13;100.00
10484;BME280;5289;42.610;23.362;2023-01-20T14:53:30;59726.34;;;-142.13;100.00
10484;BME280;5289;42.610;23.362;2023-01-20T14:56:55;59726.34;;;-142.13;100.00
10484;BME280;5289;42.610;23.362;2023-01-20T15:00:20;59726.34;;;-142.13;100.00
10484;BME280;5289;42.610;23.362;2023-01-20T15:03:54;59726.34;;;-142.13;100.00
10484;BME280;5289;42.610;23.362;2023-01-20T15:07:19;59726.34;;;-142.13;100.00
10484;BME280;5289;42.610;23.362;2023-01-20T15:10:46;59726.34;;;-142.13;100.00
10484;BME280;5289;42.610;23.362;2023-01-20T15:14:31;59726.34;;;-142.13;100.00
10484;BME280;5289;42.610;23.362;2023-01-20T15:18:16;59726.34;;;-142.13;100.00
10484;BME280;5289;42.610;23.362;2023-01-20T15:21:42;59726.34;;;-142.13;100.00
10484;BME280;5289;42.610;23.362;2023-01-20T15:25:10;59726.34;;;-142.13;100.00
10484;BME280;5289;42.610;23.362;2023-01-20T15:28:40;59726.34;;;-142.13;100.00
10484;BME280;5289;42.610;23.362;2023-01-20T15:32:09;59726.34;;;-142.13;100.00
10484;BME280;5289;42.610;23.362;2023-01-20T15:35:34;59726.34;;;-142.13;100.00
10484;BME280;5289;42.610;23.362;2023-01-20T15:38:59;59726.34;;;-142.13;100.00
10484;BME280;5289;42.610;23.362;2023-01-20T15:42:24;59726.34;;;-142.13;100.00
10484;BME280;5289;42.610;23.362;2023-01-20T15:45:51;59726.34;;;-142.13;100.00
10484;BME280;5289;42.610;23.362;2023-01-20T15:49:16;59726.34;;;-142.13;100.00
10484;BME280;5289;42.610;23.362;2023-01-20T15:52:41;59726.34;;;-142.13;100.00
10484;BME280;5289;42.610;23.362;2023-01-20T15:56:08;59726.34;;;-142.13;100.00
10484;BME280;5289;42.610;23.362;2023-01-20T15:59:35;59726.34;;;-142.13;100.00
10484;BME280;5289;42.610;23.362;2023-01-20T16:03:01;59726.34;;;-142.13;100.00
10484;BME280;5289;42.610;23.362;2023-01-20T16:06:26;59726.34;;;-142.13;100.00
10484;BME280;5289;42.610;23.362;2023-01-20T16:09:53;59726.34;;;-142.13;100.00
10484;BME280;5289;42.610;23.362;2023-01-20T16:13:18;59726.34;;;-142.13;100.00
10484;BME280;5289;42.610;23.362;2023-01-20T16:16:43;59726.34;;;-142.13;100.00
10484;BME280;5289;42.610;23.362;2023-01-20T16:20:14;59726.34;;;-142.13;100.00
10484;BME280;5289;42.610;23.362;2023-01-20T16:23:40;59726.34;;;-142.13;100.00
10484;BME280;5289;42.610;23.362;2023-01-20T16:27:19;59726.34;;;-142.13;100.00
10484;BME280;5289;42.610;23.362;2023-01-20T16:30:44;59726.34;;;-142.13;100.00
10484;BME280;5289;42.610;23.362;2023-01-20T16:34:09;59726.34;;;-142.13;100.00
10484;BME280;5289;42.610;23.362;2023-01-20T16:37:36;59726.34;;;-142.13;100.00
10484;BME280;5289;42.610;23.362;2023-01-20T16:41:01;59726.34;;;-142.13;100.00
10484;BME280;5289;42.610;23.362;2023-01-20T16:44:27;59726.34;;;-142.13;100.00
10484;BME280;5289;42.610;23.362;2023-01-20T16:47:53;59726.34;;;-142.13;100.00
10484;BME280;5289;42.610;23.362;2023-01-20T16:51:19;59726.34;;;-142.13;100.00
10484;BME280;5289;42.610;23.362;2023-01-20T16:54:46;59726.34;;;-142.13;100.00
10484;BME280;5289;42.610;23.362;2023-01-20T16:58:11;59726.34;;;-142.13;100.00
10484;BME280;5289;42.610;23.362;2023-01-20T17:01:36;59726.34;;;-142.13;100.00
10484;BME280;5289;42.610;23.362;2023-01-20T17:05:01;59726.34;;;-142.13;100.00
10484;BME280;5289;42.610;23.362;2023-01-20T17:08:26;59726.34;;;-142.13;100.00
10484;BME280;5289;42.610;23.362;2023-01-20T17:11:52;59726.34;;;-142.13;100.00
10484;BME280;5289;42.610;23.362;2023-01-20T17:15:17;59726.34;;;-142.13;100.00
10484;BME280;5289;42.610;23.362;2023-01-20T17:18:43;59726.34;;;-142.13;100.00
10484;BME280;5289;42.610;23.362;2023-01-20T17:22:08;59726.34;;;-142.13;100.00
10484;BME280;5289;42.610;23.362;2023-01-20T17:25:33;59726.34;;;-142.13;100.00
10484;BME280;5289;42.610;23.362;2023-01-20T17:29:00;59726.34;;;-142.13;100.00
10484;BME280;5289;42.610;23.362;2023-01-20T17:32:25;59726.34;;;-142.13;100.00
10484;BME280;5289;42.610;23.362;2023-01-20T17:35:53;59726.34;;;-142.13;100.00
10484;BME280;5289;42.610;23.362;2023-01-20T17:39:19;59726.34;;;-142.13;100.00
10484;BME280;5289;42.610;23.362;2023-01-20T17:42:44;59726.34;;;-142.13;100.00
10484;BME280;5289;42.610;23.362;2023-01-20T17:46:14;59726.34;;;-142.13;100.00
10484;BME280;5289;42.610;23.362;2023-01-20T17:49:39;59726.34;;;-142.13;100.00